createdAt,value
2022-08-02T00:03:57.770Z,97849.41
2022-08-02T00:08:59.140Z,97837.44
2022-08-02T00:14:00.432Z,97836.59
2022-08-02T00:19:01.727Z,97840.34
2022-08-02T00:24:28.829Z,97830.47
2022-08-02T00:29:24.488Z,97828.22
2022-08-02T00:34:28.555Z,97835.75
2022-08-02T00:39:33.613Z,97827.69
2022-08-02T00:44:36.763Z,97831.88
2022-08-02T00:49:38.180Z,97842.16
2022-08-02T00:54:39.503Z,97845.13
2022-08-02T00:59:42.059Z,97847.75
2022-08-02T01:04:43.371Z,97845.34
2022-08-02T01:09:44.766Z,97860.16
2022-08-02T01:14:46.095Z,97854.97
2022-08-02T01:19:47.351Z,97850.03
2022-08-02T01:24:48.640Z,97852.19
2022-08-02T01:29:49.918Z,97839.88
2022-08-02T01:34:51.264Z,97846.03
2022-08-02T01:39:52.536Z,97851.25
2022-08-02T01:44:53.838Z,97853.50
2022-08-02T01:49:55.137Z,97856.81
2022-08-02T01:54:56.405Z,97861.28
2022-08-02T01:59:57.724Z,97856.16
2022-08-02T02:04:59.026Z,97855.63
2022-08-02T02:10:00.283Z,97858.22
2022-08-02T02:15:01.537Z,97851.94
2022-08-02T02:20:02.860Z,97862.75
2022-08-02T02:25:06.570Z,97863.66
2022-08-02T02:30:07.887Z,97869.78
2022-08-02T02:35:09.142Z,97871.19
2022-08-02T02:40:10.453Z,97871.91
2022-08-02T02:45:11.698Z,97879.88
2022-08-02T02:50:12.994Z,97880.78
2022-08-02T02:55:14.243Z,97887.84
2022-08-02T03:00:15.594Z,97894.22
2022-08-02T03:05:16.892Z,97900.63
2022-08-02T03:10:18.160Z,97909.41
2022-08-02T03:15:19.419Z,97908.53
2022-08-02T03:20:20.800Z,97915.66
2022-08-02T03:25:22.122Z,97925.31
2022-08-02T03:30:26.889Z,97921.28
2022-08-02T03:35:28.158Z,97928.00
2022-08-02T03:40:29.428Z,97915.41
2022-08-02T03:45:30.971Z,97913.47
2022-08-02T03:50:32.283Z,97921.75
2022-08-02T03:55:33.749Z,97916.28
2022-08-02T04:00:35.113Z,97923.97
2022-08-02T04:05:36.425Z,97926.53
2022-08-02T04:11:16.603Z,97930.91
2022-08-02T04:16:17.859Z,97927.44
2022-08-02T04:21:19.118Z,97928.91
2022-08-02T04:26:28.138Z,97930.47
2022-08-02T04:31:29.835Z,97937.69
2022-08-02T04:36:31.984Z,97944.75
2022-08-02T04:41:33.324Z,97950.63
2022-08-02T04:46:34.566Z,97955.41
2022-08-02T04:51:38.468Z,97958.28
2022-08-02T04:56:40.196Z,97963.78
2022-08-02T05:01:42.533Z,97969.66
2022-08-02T05:06:43.991Z,97983.91
2022-08-02T05:11:45.370Z,97984.63
2022-08-02T05:16:56.454Z,97990.50
2022-08-02T05:21:57.707Z,98001.75
2022-08-02T05:26:58.964Z,97999.72
2022-08-02T05:32:00.219Z,97988.56
2022-08-02T05:37:01.858Z,97984.09
2022-08-02T05:42:03.122Z,97972.28
2022-08-02T05:47:04.365Z,97974.63
2022-08-02T05:52:05.622Z,97969.91
2022-08-02T05:57:06.940Z,97986.06
2022-08-02T06:02:08.340Z,97978.53
2022-08-02T06:07:09.858Z,97977.34
2022-08-02T06:12:11.208Z,97978.34
2022-08-02T06:17:12.551Z,97975.50
2022-08-02T06:22:40.271Z,97971.13
2022-08-02T06:27:38.211Z,97971.06
2022-08-02T06:32:39.518Z,97978.56
2022-08-02T06:37:40.809Z,97973.91
2022-08-02T06:42:42.086Z,97975.63
2022-08-02T06:47:43.555Z,97979.69
2022-08-02T06:52:44.842Z,97980.75
2022-08-02T06:57:46.150Z,97966.59
2022-08-02T07:02:47.423Z,97962.16
2022-08-02T07:07:48.706Z,97967.25
2022-08-02T07:12:49.961Z,97950.31
2022-08-02T07:17:51.221Z,97949.97
2022-08-02T07:22:52.566Z,97944.25
2022-08-02T07:27:53.826Z,97947.63
2022-08-02T07:32:57.824Z,97941.38
2022-08-02T07:38:02.193Z,97944.09
2022-08-02T07:43:04.467Z,97929.34
2022-08-02T07:48:06.085Z,97924.09
2022-08-02T07:53:08.135Z,97911.91
2022-08-02T07:58:11.062Z,97911.19
2022-08-02T08:03:14.066Z,97897.13
2022-08-02T08:08:17.663Z,97889.84
2022-08-02T08:13:19.096Z,97895.41
2022-08-02T08:18:20.350Z,97884.50
2022-08-02T08:23:21.591Z,97882.31
2022-08-02T08:28:22.882Z,97879.50
2022-08-02T08:33:24.141Z,97876.31
2022-08-02T08:38:25.407Z,97877.13
2022-08-02T08:43:29.826Z,97861.06
2022-08-02T08:48:31.956Z,97858.00
2022-08-02T08:53:36.449Z,97854.84
2022-08-02T08:58:38.455Z,97859.47
2022-08-02T09:03:39.737Z,97856.56
2022-08-02T09:08:41.035Z,97860.22
2022-08-02T09:13:46.119Z,97859.81
2022-08-02T09:18:47.727Z,97849.50
2022-08-02T09:23:49.068Z,97851.03
2022-08-02T09:28:50.407Z,97840.59
2022-08-02T09:33:51.792Z,97838.69
2022-08-02T09:38:53.052Z,97833.97
2022-08-02T09:44:04.676Z,97824.81
2022-08-02T09:49:08.463Z,97831.44
2022-08-02T09:54:09.951Z,97828.94
2022-08-02T09:59:11.304Z,97828.25
2022-08-02T10:04:17.354Z,97817.56
2022-08-02T10:09:23.279Z,97817.06
2022-08-02T10:14:25.731Z,97796.38
2022-08-02T10:20:01.174Z,97794.59
2022-08-02T10:24:48.888Z,97798.41
2022-08-02T10:29:55.284Z,97783.59
2022-08-02T10:34:57.532Z,97787.28
2022-08-02T10:40:03.891Z,97779.94
2022-08-02T10:45:06.418Z,97782.22
2022-08-02T10:50:08.963Z,97765.53
2022-08-02T10:55:13.430Z,97749.88
2022-08-02T11:00:22.348Z,97725.44
2022-08-02T11:05:23.606Z,97735.13
2022-08-02T11:10:24.883Z,97750.41
2022-08-02T11:15:26.152Z,97756.63
2022-08-02T11:20:27.418Z,97737.72
2022-08-02T11:25:43.011Z,97739.53
2022-08-02T11:30:49.969Z,97745.44
2022-08-02T11:35:51.222Z,97735.03
2022-08-02T11:40:57.255Z,97746.44
2022-08-02T11:45:58.948Z,97708.75
2022-08-02T11:51:00.207Z,97717.03
2022-08-02T11:56:01.457Z,97704.91
2022-08-02T12:01:02.753Z,97695.69
2022-08-02T12:06:06.932Z,97681.00
2022-08-02T12:11:17.771Z,97669.25
2022-08-02T12:16:42.295Z,97670.25
2022-08-02T12:21:43.558Z,97658.81
2022-08-02T12:26:44.867Z,97660.78
2022-08-02T12:31:56.294Z,97658.22
2022-08-02T12:36:59.473Z,97661.44
2022-08-02T12:42:00.729Z,97664.47
2022-08-02T12:47:02.135Z,97678.47
2022-08-02T12:52:06.936Z,97685.69
2022-08-02T12:57:08.607Z,97676.59
2022-08-02T13:02:11.666Z,97686.41
2022-08-02T13:07:13.511Z,97662.16
2022-08-02T13:12:15.257Z,97661.69
2022-08-02T13:17:16.824Z,97660.06
2022-08-02T13:22:18.812Z,97656.91
2022-08-02T13:27:20.797Z,97658.41
2022-08-02T13:32:22.557Z,97639.72
2022-08-02T13:37:23.885Z,97629.72
2022-08-02T13:42:25.227Z,97620.00
2022-08-02T13:47:36.517Z,97623.28
2022-08-02T13:52:48.552Z,97619.09
2022-08-02T13:57:55.470Z,97613.69
2022-08-02T14:02:56.874Z,97610.75
2022-08-02T14:08:00.285Z,97598.78
2022-08-02T14:13:03.703Z,97594.88
2022-08-02T14:18:05.040Z,97596.91
2022-08-02T14:23:06.856Z,97585.38
2022-08-02T14:28:08.216Z,97577.94
2022-08-02T14:33:09.527Z,97578.88
2022-08-02T14:38:10.849Z,97582.66
2022-08-02T14:43:32.085Z,97561.59
2022-08-02T14:48:33.391Z,97555.44
2022-08-02T14:53:37.978Z,97557.53
2022-08-02T14:58:51.025Z,97564.88
2022-08-02T15:03:52.285Z,97554.75
2022-08-02T15:08:53.575Z,97555.38
2022-08-02T15:13:55.130Z,97554.91
2022-08-02T15:19:00.184Z,97546.75
2022-08-02T15:24:01.439Z,97567.75
2022-08-02T15:29:02.694Z,97552.47
2022-08-02T15:34:04.011Z,97545.41
2022-08-02T15:39:05.332Z,97555.97
2022-08-02T15:44:06.705Z,97555.69
2022-08-02T15:49:08.123Z,97553.03
2022-08-02T15:54:09.463Z,97558.09
2022-08-02T15:59:10.761Z,97570.09
2022-08-02T16:04:12.050Z,97592.34
2022-08-02T16:09:13.383Z,97569.28
2022-08-02T16:14:14.643Z,97582.72
2022-08-02T16:19:46.350Z,97578.34
2022-08-02T16:24:37.151Z,97574.66
2022-08-02T16:29:38.439Z,97571.28
2022-08-02T16:35:07.229Z,97579.25
2022-08-02T16:40:01.023Z,97574.19
2022-08-02T16:45:03.272Z,97573.19
2022-08-02T16:50:10.779Z,97572.34
2022-08-02T16:55:12.538Z,97583.66
2022-08-02T17:00:13.834Z,97582.44
2022-08-02T17:05:17.034Z,97569.72
2022-08-02T17:10:18.835Z,97584.78
2022-08-02T17:16:15.671Z,97613.47
2022-08-02T17:20:41.589Z,97627.94
2022-08-02T17:25:42.935Z,97644.84
2022-08-02T17:30:53.801Z,97644.09
2022-08-02T17:35:55.055Z,97648.44
2022-08-02T17:40:56.671Z,97638.81
2022-08-02T17:46:00.854Z,97650.59
2022-08-02T17:51:03.930Z,97651.06
2022-08-02T17:56:05.178Z,97639.09
2022-08-02T18:01:06.431Z,97649.56
2022-08-02T18:06:26.215Z,97646.00
2022-08-02T18:11:52.043Z,97630.53
2022-08-02T18:16:49.508Z,97624.63
2022-08-02T18:21:50.762Z,97634.16
2022-08-02T18:26:52.048Z,97634.00
2022-08-02T18:31:53.325Z,97640.97
2022-08-02T18:36:55.567Z,97640.97
2022-08-02T18:41:56.852Z,97639.78
2022-08-02T18:46:58.179Z,97644.75
2022-08-02T18:52:00.779Z,97653.28
2022-08-02T18:57:04.165Z,97665.38
2022-08-02T19:02:24.889Z,97674.41
2022-08-02T19:07:50.634Z,97686.69
2022-08-02T19:12:51.753Z,97698.19
2022-08-02T19:17:57.071Z,97703.13
2022-08-02T19:22:58.626Z,97707.31
2022-08-02T19:27:59.987Z,97706.66
2022-08-02T19:33:09.109Z,97706.34
2022-08-02T19:38:11.337Z,97723.34
2022-08-02T19:44:24.050Z,97709.22
2022-08-02T19:48:34.136Z,97720.69
2022-08-02T19:53:47.777Z,97726.50
2022-08-02T19:58:51.421Z,97732.78
2022-08-02T20:03:53.289Z,97731.34
2022-08-02T20:08:57.227Z,97740.41
2022-08-02T20:14:00.806Z,97745.06
2022-08-02T20:19:02.093Z,97746.13
2022-08-02T20:24:03.689Z,97750.88
2022-08-02T20:29:04.975Z,97758.19
2022-08-02T20:34:07.159Z,97762.31
2022-08-02T20:39:08.626Z,97765.69
2022-08-02T20:44:15.682Z,97754.34
2022-08-02T20:49:40.376Z,97748.50
2022-08-02T20:54:42.971Z,97748.09
2022-08-02T20:59:52.030Z,97751.78
2022-08-02T21:04:53.495Z,97762.25
2022-08-02T21:09:54.843Z,97763.00
2022-08-02T21:14:56.957Z,97761.28
2022-08-02T21:20:00.732Z,97771.00
2022-08-02T21:25:02.003Z,97778.41
2022-08-02T21:30:03.432Z,97768.53
2022-08-02T21:35:05.350Z,97774.28
2022-08-02T21:40:07.452Z,97765.16
2022-08-02T21:45:17.040Z,97769.53
2022-08-02T21:50:21.136Z,97766.16
2022-08-02T21:55:24.162Z,97766.25
2022-08-02T22:00:43.826Z,97771.09
2022-08-02T22:05:47.214Z,97774.34
2022-08-02T22:11:01.173Z,97775.88
2022-08-02T22:16:07.678Z,97781.09
2022-08-02T22:21:13.976Z,97789.03
2022-08-02T22:26:15.898Z,97794.88
2022-08-02T22:31:41.638Z,97800.50
2022-08-02T22:36:43.419Z,97808.47
2022-08-02T22:42:05.965Z,97810.94
2022-08-02T22:47:14.980Z,97810.56
2022-08-02T22:52:16.984Z,97817.25
2022-08-02T22:57:30.778Z,97823.38
2022-08-02T23:02:33.149Z,97819.19
2022-08-02T23:07:38.560Z,97823.94
2022-08-02T23:12:40.334Z,97815.56
2022-08-02T23:18:00.339Z,97825.88
2022-08-02T23:23:01.590Z,97822.75
2022-08-02T23:28:02.913Z,97821.84
2022-08-02T23:33:04.174Z,97825.59
2022-08-02T23:38:05.463Z,97829.78
2022-08-02T23:43:14.422Z,97837.00
2022-08-02T23:48:16.449Z,97844.53
2022-08-02T23:53:17.705Z,97842.09
2022-08-02T23:58:19.086Z,97846.66
